Time;durP1;ratioP1;P1;durP2;ratioP2;P2;SDS_P1;SDS_P2;PMS_P1;PMS_P2;Temp;Humidity;BMP_temperature;BMP_pressure;BME280_temperature;BME280_humidity;BME280_pressure;Samples;Min_cycle;Max_cycle;Signal;HPM_P1;HPM_P2
2023/01/15 04:00:31;;;;;;;0.80;0.35;;;15.70;51.70;;;;;;6068477;23;46194;31
2023/01/15 04:02:57;;;;;;;1.02;0.55;;;15.70;51.70;;;;;;4933666;23;45566;-83
2023/01/15 04:05:23;;;;;;;0.63;0.40;;;15.70;51.70;;;;;;4926427;28;47086;-84
2023/01/15 04:07:48;;;;;;;0.35;0.30;;;15.70;51.60;;;;;;4918924;28;45668;-84
2023/01/15 04:10:14;;;;;;;0.60;0.40;;;15.70;51.70;;;;;;4923717;28;44710;-84
2023/01/15 04:12:40;;;;;;;0.60;0.40;;;15.70;51.70;;;;;;4925114;28;44732;-84
2023/01/15 04:15:06;;;;;;;0.30;0.30;;;15.70;51.70;;;;;;4889159;28;47434;-85
2023/01/15 04:17:31;;;;;;;0.32;0.30;;;15.70;51.70;;;;;;4899522;28;44655;-85
2023/01/15 04:19:57;;;;;;;0.30;0.30;;;15.70;51.70;;;;;;4906589;28;45289;-84
2023/01/15 04:22:22;;;;;;;0.57;0.43;;;15.70;51.70;;;;;;4895518;23;44721;-62
2023/01/15 04:24:48;;;;;;;0.22;0.22;;;15.70;51.70;;;;;;4907826;28;45379;-61
2023/01/15 04:27:13;;;;;;;0.35;0.30;;;15.70;51.70;;;;;;4910345;28;45326;-62
2023/01/15 04:29:39;;;;;;;0.40;0.40;;;15.70;51.70;;;;;;4927561;28;44843;-61
2023/01/15 04:32:05;;;;;;;0.57;0.45;;;15.70;51.70;;;;;;4910024;28;45729;-61
2023/01/15 04:34:30;;;;;;;0.45;0.38;;;15.60;51.70;;;;;;4893467;28;45787;-62
2023/01/15 04:36:56;;;;;;;0.68;0.38;;;15.60;51.70;;;;;;4925678;28;45331;-61
2023/01/15 04:39:21;;;;;;;0.20;0.20;;;15.70;51.70;;;;;;4912779;28;45312;-62
2023/01/15 04:44:33;;;;;;;0.20;0.20;;;15.70;51.70;;;;;;4909454;28;46971;-61
2023/01/15 04:46:59;;;;;;;0.98;0.57;;;15.70;51.70;;;;;;4909511;28;45287;-61
2023/01/15 04:49:24;;;;;;;0.98;0.47;;;15.60;51.60;;;;;;4924077;28;45338;-61
2023/01/15 04:51:50;;;;;;;0.50;0.47;;;15.70;51.70;;;;;;4922544;28;45211;-59
2023/01/15 04:54:15;;;;;;;0.80;0.38;;;15.70;51.70;;;;;;4921153;28;45049;-61
2023/01/15 04:56:42;;;;;;;0.63;0.40;;;15.60;51.70;;;;;;4908175;28;44795;-62
2023/01/15 04:59:08;;;;;;;0.30;0.30;;;15.60;51.70;;;;;;4914506;28;45573;-61
2023/01/15 05:01:33;;;;;;;0.57;0.30;;;15.60;51.70;;;;;;4911913;28;45384;-61
2023/01/15 05:03:59;;;;;;;0.47;0.30;;;15.60;51.60;;;;;;4906612;28;45470;-62
2023/01/15 05:06:25;;;;;;;0.73;0.30;;;15.70;51.70;;;;;;4920586;28;45568;-61
2023/01/15 05:08:51;;;;;;;0.45;0.30;;;15.60;51.60;;;;;;4912177;28;44849;-61
2023/01/15 05:11:16;;;;;;;0.60;0.40;;;15.60;51.70;;;;;;4909821;28;45218;-62
2023/01/15 05:13:42;;;;;;;0.30;0.30;;;15.60;51.70;;;;;;4923481;28;45310;-61
2023/01/15 05:16:12;;;;;;;0.50;0.30;;;15.60;51.70;;;;;;4920356;28;45389;-61
2023/01/15 05:18:38;;;;;;;0.20;0.20;;;15.60;51.70;;;;;;4909162;28;45162;-61
2023/01/15 05:21:03;;;;;;;0.20;0.20;;;15.60;51.70;;;;;;4914529;28;46003;-61
2023/01/15 05:23:29;;;;;;;0.10;0.10;;;15.60;51.70;;;;;;4925195;28;45461;-61
2023/01/15 05:25:54;;;;;;;0.65;0.40;;;15.60;51.70;;;;;;4925917;28;46310;-61
2023/01/15 05:28:20;;;;;;;0.90;0.50;;;15.60;51.70;;;;;;4923010;28;45536;-61
2023/01/15 05:30:45;;;;;;;1.00;0.57;;;15.60;51.70;;;;;;4939086;28;45745;-61
2023/01/15 05:33:11;;;;;;;0.30;0.30;;;15.60;51.70;;;;;;4926397;28;45340;-61
2023/01/15 05:35:36;;;;;;;0.40;0.30;;;15.60;51.70;;;;;;4919811;28;45616;-61
2023/01/15 05:38:05;;;;;;;0.28;0.28;;;15.60;51.60;;;;;;4922056;28;45339;-61
2023/01/15 05:40:30;;;;;;;0.20;0.20;;;15.60;51.70;;;;;;4924630;28;45098;-61
2023/01/15 05:42:56;;;;;;;0.40;0.35;;;15.60;51.70;;;;;;4920991;28;45040;-61
2023/01/15 05:45:21;;;;;;;0.20;0.20;;;15.60;51.70;;;;;;4905743;28;45299;-61
2023/01/15 05:47:47;;;;;;;0.35;0.20;;;15.60;51.70;;;;;;4917134;28;45362;-61
2023/01/15 05:50:12;;;;;;;0.60;0.40;;;15.60;51.80;;;;;;4918919;28;45228;-61
2023/01/15 05:52:38;;;;;;;0.38;0.30;;;15.60;51.70;;;;;;4924905;28;45568;-61
2023/01/15 05:55:04;;;;;;;0.10;0.10;;;15.60;51.70;;;;;;4913341;28;45513;-63
2023/01/15 05:57:31;;;;;;;0.40;0.30;;;15.60;51.70;;;;;;4919115;28;45210;-62
2023/01/15 05:59:57;;;;;;;0.50;0.30;;;15.60;51.70;;;;;;4924707;28;45498;-61
2023/01/15 06:02:22;;;;;;;0.22;0.20;;;15.60;52.30;;;;;;4919997;28;46189;-62
2023/01/15 06:04:48;;;;;;;0.40;0.30;;;15.60;51.80;;;;;;4907822;28;46674;-61
2023/01/15 06:07:16;;;;;;;0.43;0.40;;;15.60;51.80;;;;;;4923325;28;44933;-61
2023/01/15 06:09:41;;;;;;;1.05;0.60;;;15.60;51.80;;;;;;4923246;28;44893;-61
2023/01/15 06:12:07;;;;;;;0.60;0.30;;;15.60;51.80;;;;;;4934456;28;45700;-61
2023/01/15 06:14:32;;;;;;;0.30;0.30;;;15.60;51.80;;;;;;4921644;28;45249;-61
2023/01/15 06:16:58;;;;;;;0.40;0.28;;;15.60;51.80;;;;;;4922165;28;45412;-61
2023/01/15 06:19:23;;;;;;;0.28;0.20;;;15.60;51.80;;;;;;4917684;28;45379;-61
2023/01/15 06:21:49;;;;;;;0.30;0.30;;;15.60;51.80;;;;;;4924698;28;45337;-61
2023/01/15 06:24:16;;;;;;;0.50;0.32;;;15.60;51.80;;;;;;4925543;28;45404;-61
2023/01/15 06:26:42;;;;;;;0.35;0.20;;;15.60;51.80;;;;;;4903167;28;45230;-63
2023/01/15 06:29:07;;;;;;;0.55;0.40;;;15.60;51.80;;;;;;4927049;28;45398;-61
2023/01/15 06:31:33;;;;;;;0.35;0.30;;;15.60;51.80;;;;;;4917970;28;47455;-61
2023/01/15 06:33:58;;;;;;;0.82;0.32;;;15.60;51.80;;;;;;4912545;28;45309;-61
2023/01/15 06:36:25;;;;;;;0.73;0.47;;;15.60;51.80;;;;;;4911057;28;45254;-61
2023/01/15 06:38:50;;;;;;;0.25;0.25;;;15.50;51.80;;;;;;4907481;28;45309;-62
2023/01/15 06:49:32;;;;;;;0.30;0.30;;;15.60;51.90;;;;;;4908650;28;45041;-61
2023/01/15 06:51:58;;;;;;;0.55;0.40;;;15.50;51.90;;;;;;4912835;28;47064;-61
2023/01/15 06:54:24;;;;;;;0.40;0.30;;;15.50;51.90;;;;;;4912189;28;45125;-61
2023/01/15 06:56:50;;;;;;;0.50;0.50;;;15.50;51.90;;;;;;4926137;28;45510;-62
2023/01/15 06:59:15;;;;;;;0.68;0.30;;;15.50;51.90;;;;;;4907095;28;46215;-61
2023/01/15 07:01:41;;;;;;;0.25;0.20;;;15.50;51.90;;;;;;4925698;28;45329;-60
2023/01/15 07:04:06;;;;;;;0.52;0.32;;;15.50;51.90;;;;;;4913364;28;44928;-61
2023/01/15 07:06:32;;;;;;;0.32;0.30;;;15.50;51.90;;;;;;4909886;28;45343;-61
2023/01/15 07:08:58;;;;;;;0.65;0.40;;;15.50;51.90;;;;;;4896774;28;45218;-61
2023/01/15 07:11:23;;;;;;;0.40;0.40;;;15.50;51.90;;;;;;4925738;28;46374;-61
2023/01/15 07:13:49;;;;;;;0.32;0.30;;;15.50;51.90;;;;;;4924590;28;45449;-62
2023/01/15 07:16:26;;;;;;;0.32;0.30;;;15.50;51.90;;;;;;4926255;28;45314;-61
2023/01/15 07:18:53;;;;;;;0.60;0.40;;;15.50;51.90;;;;;;4896343;28;45366;-62
2023/01/15 07:21:19;;;;;;;0.40;0.30;;;15.50;51.90;;;;;;4914724;28;46780;-61
2023/01/15 07:23:44;;;;;;;0.32;0.30;;;15.50;51.90;;;;;;4924963;28;45313;-61
2023/01/15 07:26:10;;;;;;;0.65;0.35;;;15.50;51.90;;;;;;4925460;28;45610;-61
2023/01/15 07:28:35;;;;;;;0.28;0.28;;;15.50;51.90;;;;;;4926344;28;45605;-61
2023/01/15 07:31:01;;;;;;;0.30;0.30;;;15.50;51.90;;;;;;4928722;28;45332;-61
2023/01/15 07:33:26;;;;;;;0.40;0.30;;;15.50;51.90;;;;;;4925621;28;45187;-61
2023/01/15 07:35:52;;;;;;;1.25;0.50;;;15.50;51.90;;;;;;4923535;28;44782;-61
2023/01/15 07:38:17;;;;;;;0.73;0.30;;;15.50;51.90;;;;;;4926005;28;45419;-61
2023/01/15 07:40:43;;;;;;;0.47;0.30;;;15.50;52.00;;;;;;4926161;28;46285;-61
2023/01/15 07:51:29;;;;;;;0.63;0.38;;;15.50;52.00;;;;;;4904414;28;45369;-61
2023/01/15 07:53:54;;;;;;;0.30;0.20;;;15.50;52.00;;;;;;4927564;28;45313;-61
2023/01/15 07:56:20;;;;;;;0.45;0.32;;;15.40;51.90;;;;;;4909445;28;44704;-60
2023/01/15 07:58:49;;;;;;;0.20;0.20;;;15.50;52.00;;;;;;4925264;28;46691;-61
2023/01/15 08:01:14;;;;;;;1.15;0.52;;;15.50;52.00;;;;;;4923351;28;45868;-61
2023/01/15 08:03:40;;;;;;;0.50;0.43;;;15.50;52.00;;;;;;4909862;28;45493;-63
2023/01/15 08:06:06;;;;;;;0.40;0.30;;;15.50;52.00;;;;;;4926287;28;44728;-63
2023/01/15 08:08:31;;;;;;;0.65;0.50;;;15.50;52.10;;;;;;4938836;28;45398;-62
2023/01/15 08:16:29;;;;;;;0.35;0.30;;;15.50;52.10;;;;;;4925270;28;45278;-62
2023/01/15 08:18:54;;;;;;;0.35;0.22;;;15.50;52.10;;;;;;4926336;28;45801;-62
2023/01/15 08:21:20;;;;;;;0.57;0.30;;;15.50;52.00;;;;;;4927429;28;46138;-62
2023/01/15 08:23:46;;;;;;;0.50;0.35;;;15.60;52.10;;;;;;4908823;28;45754;-61
2023/01/15 08:26:12;;;;;;;0.32;0.30;;;15.60;52.00;;;;;;4921248;28;45430;-61
2023/01/15 08:28:37;;;;;;;0.40;0.40;;;15.60;52.10;;;;;;4909349;28;45424;-62
2023/01/15 08:31:05;;;;;;;0.60;0.40;;;15.60;52.00;;;;;;4908071;28;47411;-62
2023/01/15 08:33:31;;;;;;;0.40;0.32;;;15.60;52.00;;;;;;4902540;28;45349;-62
2023/01/15 08:35:57;;;;;;;0.30;0.30;;;15.60;52.00;;;;;;4922855;28;44726;-63
2023/01/15 08:38:22;;;;;;;0.40;0.30;;;15.60;52.00;;;;;;4898820;28;45869;-60
2023/01/15 08:40:58;;;;;;;0.52;0.35;;;15.70;52.00;;;;;;4919812;28;46644;-62
2023/01/15 08:43:28;;;;;;;0.55;0.35;;;15.70;52.00;;;;;;4904517;28;45301;-63
2023/01/15 08:46:02;;;;;;;0.65;0.50;;;15.70;52.00;;;;;;4919918;28;45205;-62
2023/01/15 08:48:28;;;;;;;1.00;0.60;;;15.70;52.00;;;;;;4893802;28;44996;-62
2023/01/15 08:50:54;;;;;;;0.50;0.38;;;15.70;52.00;;;;;;4895478;28;45497;-62
2023/01/15 08:53:19;;;;;;;0.47;0.32;;;15.70;52.00;;;;;;4911088;28;45646;-62
2023/01/15 08:55:46;;;;;;;0.65;0.50;;;15.70;52.00;;;;;;4910671;28;45359;-62
2023/01/15 08:58:11;;;;;;;0.50;0.40;;;15.70;52.00;;;;;;4912607;28;46196;-63
2023/01/15 09:00:37;;;;;;;0.55;0.40;;;15.80;52.60;;;;;;4909012;28;46354;-63
2023/01/15 09:03:02;;;;;;;0.75;0.40;;;15.80;52.00;;;;;;4895131;28;44698;-61
2023/01/15 09:05:28;;;;;;;0.73;0.40;;;15.80;52.00;;;;;;4916869;28;45333;-61
2023/01/15 09:07:54;;;;;;;0.38;0.30;;;15.80;52.00;;;;;;4920371;28;45339;-62
2023/01/15 09:10:20;;;;;;;0.43;0.40;;;15.80;52.00;;;;;;4894887;28;46210;-60
2023/01/15 09:12:46;;;;;;;0.40;0.38;;;15.80;52.00;;;;;;4900753;28;45329;-61
2023/01/15 09:15:11;;;;;;;0.80;0.40;;;15.80;52.10;;;;;;4913031;28;46274;-62
2023/01/15 09:17:39;;;;;;;0.22;0.20;;;15.70;52.10;;;;;;4905524;28;45422;-62
2023/01/15 09:20:06;;;;;;;0.32;0.30;;;15.70;52.10;;;;;;4901459;28;46146;-62
2023/01/15 09:22:31;;;;;;;0.73;0.50;;;15.80;52.10;;;;;;4919555;28;45441;-61
2023/01/15 09:24:57;;;;;;;0.20;0.20;;;15.80;52.10;;;;;;4922027;28;45343;-61
2023/01/15 09:27:23;;;;;;;0.45;0.30;;;15.70;52.10;;;;;;4920797;28;45282;-61
2023/01/15 09:29:48;;;;;;;0.28;0.28;;;15.70;52.10;;;;;;4921755;28;45515;-61
2023/01/15 09:32:14;;;;;;;0.68;0.50;;;15.70;52.00;;;;;;4918397;28;45309;-61
2023/01/15 09:34:39;;;;;;;0.30;0.30;;;15.70;52.10;;;;;;4917152;28;45154;-61
2023/01/15 09:37:05;;;;;;;0.35;0.35;;;15.70;52.00;;;;;;4917471;28;45234;-62
2023/01/15 09:39:30;;;;;;;0.38;0.30;;;15.70;52.10;;;;;;4931578;28;45589;-61
2023/01/15 09:42:12;;;;;;;0.47;0.35;;;15.70;52.00;;;;;;4917311;28;44802;-61
2023/01/15 09:44:47;;;;;;;0.43;0.40;;;15.70;52.10;;;;;;4920590;28;45886;-61
2023/01/15 09:47:18;;;;;;;0.40;0.30;;;15.70;52.10;;;;;;4923289;28;45263;-61
2023/01/15 09:50:17;;;;;;;0.40;0.30;;;15.70;52.10;;;;;;4886326;28;46198;-61
2023/01/15 09:52:49;;;;;;;0.40;0.40;;;15.70;52.10;;;;;;4906404;28;45320;-62
2023/01/15 09:55:25;;;;;;;0.65;0.40;;;15.70;52.10;;;;;;4921046;28;45317;-61
2023/01/15 09:57:55;;;;;;;0.60;0.43;;;15.70;52.20;;;;;;4910858;28;45483;-61
2023/01/15 10:00:23;;;;;;;2.53;0.40;;;15.70;52.20;;;;;;4908843;28;46563;-61
2023/01/15 10:03:03;;;;;;;0.20;0.20;;;15.70;52.20;;;;;;4919122;28;45309;-60
2023/01/15 10:05:45;;;;;;;0.30;0.30;;;15.70;52.20;;;;;;4924936;28;45682;-60
2023/01/15 10:08:16;;;;;;;0.30;0.30;;;15.70;52.20;;;;;;4934565;28;45867;-61
2023/01/15 10:10:57;;;;;;;0.20;0.20;;;15.70;52.10;;;;;;4924349;28;46232;-61
2023/01/15 10:13:44;;;;;;;0.38;0.35;;;15.70;52.20;;;;;;4892249;28;45401;-61
2023/01/15 10:16:11;;;;;;;0.40;0.30;;;15.70;52.20;;;;;;4926580;28;45351;-62
2023/01/15 10:18:36;;;;;;;1.27;0.40;;;15.70;52.20;;;;;;4940322;28;45730;-60
2023/01/15 10:21:17;;;;;;;0.32;0.30;;;15.60;52.10;;;;;;4927563;28;46122;-61
2023/01/15 10:24:04;;;;;;;0.52;0.30;;;15.60;52.10;;;;;;4935990;28;45008;-61
2023/01/15 10:26:50;;;;;;;0.28;0.20;;;15.60;52.20;;;;;;4925141;28;45247;-61
2023/01/15 10:29:28;;;;;;;0.40;0.40;;;15.60;52.20;;;;;;4919945;28;45475;-61
2023/01/15 10:32:00;;;;;;;0.22;0.20;;;15.60;52.20;;;;;;4919616;28;46056;-61
2023/01/15 10:34:51;;;;;;;0.40;0.30;;;15.60;52.20;;;;;;4907903;28;49014;-61
2023/01/15 10:37:27;;;;;;;0.38;0.38;;;15.60;52.20;;;;;;4920445;28;45633;-61
2023/01/15 10:40:08;;;;;;;0.30;0.30;;;15.60;52.20;;;;;;4911566;28;44791;-61
2023/01/15 10:43:11;;;;;;;0.50;0.50;;;15.60;52.20;;;;;;4922888;28;46202;-61
2023/01/15 10:45:43;;;;;;;0.40;0.40;;;15.60;52.20;;;;;;4917144;28;45983;-62
2023/01/15 10:48:14;;;;;;;0.93;0.30;;;15.60;52.30;;;;;;4924338;28;45294;-62
2023/01/15 10:50:39;;;;;;;0.40;0.30;;;15.60;52.20;;;;;;4908412;28;45521;-61
2023/01/15 10:53:23;;;;;;;0.50;0.40;;;15.60;52.20;;;;;;4906423;28;45578;-61
2023/01/15 10:55:52;;;;;;;;;;;15.60;52.30;;;;;;4920691;28;45301;-61
2023/01/15 10:58:28;;;;;;;0.50;0.40;;;15.60;52.40;;;;;;4925015;28;45163;-60
2023/01/15 11:00:57;;;;;;;0.45;0.30;;;15.50;52.30;;;;;;4909504;28;46729;-61
2023/01/15 11:03:34;;;;;;;0.38;0.30;;;15.60;52.30;;;;;;4938428;28;45305;-61
2023/01/15 11:05:59;;;;;;;0.30;0.20;;;15.60;52.30;;;;;;4914694;28;45278;-60
2023/01/15 11:08:31;;;;;;;0.32;0.32;;;15.50;52.20;;;;;;4921691;28;45329;-61
2023/01/15 11:11:01;;;;;;;0.20;0.20;;;15.50;52.20;;;;;;4928459;28;45417;-60
2023/01/15 11:21:49;;;;;;;0.45;0.30;;;15.60;52.20;;;;;;4921516;28;45539;-61
2023/01/15 11:24:15;;;;;;;0.43;0.35;;;15.50;52.20;;;;;;4924178;28;45426;-61
2023/01/15 11:26:44;;;;;;;0.50;0.47;;;15.50;52.20;;;;;;4922302;28;45166;-61
2023/01/15 11:29:14;;;;;;;0.85;0.50;;;15.50;52.20;;;;;;4914309;28;45546;-61
2023/01/15 11:31:40;;;;;;;0.63;0.40;;;15.50;52.20;;;;;;4894732;28;45653;-61
2023/01/15 11:34:19;;;;;;;0.40;0.32;;;15.50;52.20;;;;;;4921935;28;45942;-61
2023/01/15 11:36:44;;;;;;;0.60;0.30;;;15.50;52.30;;;;;;4905885;28;44780;-60
2023/01/15 11:39:29;;;;;;;0.90;0.40;;;15.50;52.20;;;;;;4912633;28;45296;-60
2023/01/15 11:50:42;;;;;;;0.35;0.25;;;15.50;52.30;;;;;;4909357;28;45946;-60
2023/01/15 11:53:16;;;;;;;1.08;0.40;;;15.50;52.30;;;;;;4925261;28;45008;-61
2023/01/15 11:55:52;;;;;;;0.50;0.40;;;15.50;52.40;;;;;;4923413;28;45286;-61
2023/01/15 11:58:18;;;;;;;0.47;0.40;;;15.50;52.30;;;;;;4911271;28;45237;-61
2023/01/15 12:00:44;;;;;;;0.90;0.47;;;15.50;52.80;;;;;;4933708;28;45329;-61
2023/01/15 12:03:15;;;;;;;0.95;0.50;;;15.50;52.30;;;;;;4923378;28;45444;-61
2023/01/15 12:05:45;;;;;;;0.40;0.30;;;15.50;52.30;;;;;;4918866;28;45470;-61
2023/01/15 12:08:18;;;;;;;0.30;0.22;;;15.50;52.30;;;;;;4942798;28;45379;-61
2023/01/15 12:11:18;;;;;;;0.47;0.40;;;15.50;52.30;;;;;;4937647;28;45566;-61
2023/01/15 12:13:50;;;;;;;0.30;0.30;;;15.50;52.30;;;;;;4927730;28;45723;-61
2023/01/15 12:16:51;;;;;;;0.47;0.30;;;15.40;52.30;;;;;;4909258;28;47231;-61
2023/01/15 12:19:25;;;;;;;0.47;0.38;;;15.40;52.30;;;;;;4927572;28;45457;-61
2023/01/15 12:22:00;;;;;;;0.35;0.30;;;15.50;52.30;;;;;;4922445;28;45274;-61
2023/01/15 12:24:47;;;;;;;0.32;0.28;;;15.40;52.30;;;;;;4911292;28;45597;-62
2023/01/15 12:27:19;;;;;;;0.43;0.30;;;15.40;52.30;;;;;;4900828;28;46931;-62
2023/01/15 12:29:59;;;;;;;0.30;0.30;;;15.40;52.30;;;;;;4919783;28;44742;-62
2023/01/15 12:32:36;;;;;;;0.43;0.35;;;15.40;52.30;;;;;;4909805;28;45468;-61
2023/01/15 12:35:31;;;;;;;0.25;0.25;;;15.40;52.30;;;;;;4916998;28;45402;-65
2023/01/15 12:38:02;;;;;;;0.32;0.25;;;15.40;52.30;;;;;;4893087;28;45660;-63
2023/01/15 12:40:40;;;;;;;0.52;0.30;;;15.40;52.30;;;;;;4921412;28;44748;-63
2023/01/15 12:45:58;;;;;;;0.35;0.25;;;15.40;52.20;;;;;;4921979;28;45306;-62
2023/01/15 12:48:42;;;;;;;0.20;0.20;;;15.40;52.20;;;;;;4925673;28;45621;-61
2023/01/15 12:51:08;;;;;;;0.20;0.20;;;15.40;52.30;;;;;;4918519;28;45270;-61
2023/01/15 12:53:43;;;;;;;0.77;0.40;;;15.40;52.30;;;;;;4905938;28;45232;-61
2023/01/15 12:56:09;;;;;;;0.63;0.40;;;15.40;52.30;;;;;;4933319;28;44797;-61
2023/01/15 12:58:41;;;;;;;0.52;0.35;;;15.40;52.30;;;;;;4907656;28;47268;-61
2023/01/15 13:01:18;;;;;;;0.25;0.20;;;15.40;52.30;;;;;;4930285;28;44805;-62
2023/01/15 13:04:12;;;;;;;0.30;0.20;;;15.40;52.30;;;;;;4920484;28;44798;-62
2023/01/15 13:06:39;;;;;;;0.40;0.40;;;15.40;52.30;;;;;;4921065;28;45531;-61
2023/01/15 13:09:12;;;;;;;0.30;0.30;;;15.40;52.30;;;;;;4921163;28;45063;-61
2023/01/15 13:11:37;;;;;;;0.32;0.30;;;15.40;52.30;;;;;;4895651;28;45592;-62
2023/01/15 13:14:10;;;;;;;0.75;0.30;;;15.40;52.30;;;;;;4930668;28;45556;-61
2023/01/15 13:16:57;;;;;;;0.22;0.20;;;15.40;52.20;;;;;;4916481;28;45631;-62
2023/01/15 13:19:47;;;;;;;0.32;0.32;;;15.40;52.20;;;;;;4919361;28;45575;-60
2023/01/15 13:22:17;;;;;;;0.60;0.40;;;15.40;52.30;;;;;;4914980;28;48592;-62
2023/01/15 13:25:10;;;;;;;0.43;0.22;;;15.40;52.30;;;;;;4903147;28;45129;-61
2023/01/15 13:28:18;;;;;;;0.47;0.43;;;15.40;52.40;;;;;;4898034;28;44732;-62
2023/01/15 13:31:01;;;;;;;0.50;0.40;;;15.40;52.30;;;;;;4900176;28;45705;-62
2023/01/15 13:33:47;;;;;;;0.30;0.20;;;15.40;52.30;;;;;;4903726;28;44803;-62
2023/01/15 13:36:36;;;;;;;0.52;0.20;;;15.30;52.30;;;;;;4889728;28;45221;-61
2023/01/15 13:39:02;;;;;;;0.38;0.30;;;15.40;52.40;;;;;;4876072;28;45442;-62
2023/01/15 13:44:24;;;;;;;0.40;0.40;;;15.40;52.30;;;;;;4906604;28;45555;-60
2023/01/15 13:47:05;;;;;;;0.32;0.30;;;15.40;52.30;;;;;;4890221;28;44953;-60
2023/01/15 13:49:36;;;;;;;0.30;0.30;;;15.40;52.30;;;;;;4900925;28;45355;-60
2023/01/15 13:52:03;;;;;;;0.80;0.40;;;15.30;52.30;;;;;;4900420;28;45702;-62
2023/01/15 13:54:29;;;;;;;0.20;0.20;;;15.40;52.30;;;;;;4891007;28;45326;-60
2023/01/15 13:57:09;;;;;;;0.28;0.28;;;15.30;52.30;;;;;;4892576;28;45518;-60
2023/01/15 13:59:42;;;;;;;0.38;0.30;;;15.30;52.30;;;;;;4913393;28;45512;-60
2023/01/15 14:02:27;;;;;;;0.88;0.30;;;15.30;52.30;;;;;;4915184;28;45331;-60
2023/01/15 14:04:53;;;;;;;1.08;0.40;;;15.40;52.30;;;;;;4903831;28;44771;-60
2023/01/15 14:07:22;;;;;;;0.70;0.57;;;15.30;52.30;;;;;;4897684;28;45343;-60
2023/01/15 14:09:48;;;;;;;0.40;0.30;;;15.30;52.30;;;;;;4889286;28;44898;-59
2023/01/15 14:12:27;;;;;;;0.40;0.30;;;15.40;52.30;;;;;;4889569;28;45622;-60
2023/01/15 14:15:14;;;;;;;0.32;0.30;;;15.30;52.30;;;;;;4892203;28;45459;-60
2023/01/15 14:18:11;;;;;;;0.30;0.30;;;15.30;52.30;;;;;;4917053;28;45054;-60
2023/01/15 14:21:05;;;;;;;0.40;0.30;;;15.30;52.20;;;;;;4904982;28;45270;-60
2023/01/15 14:24:30;;;;;;;0.40;0.30;;;15.30;52.30;;;;;;4907326;28;45923;-60
2023/01/15 14:27:10;;;;;;;0.35;0.30;;;15.30;52.30;;;;;;4830926;29;45393;-60
2023/01/15 14:29:45;;;;;;;0.20;0.20;;;15.30;52.30;;;;;;4892475;28;45009;-60
2023/01/15 14:32:25;;;;;;;0.40;0.40;;;15.30;52.30;;;;;;4901798;28;45459;-60
2023/01/15 14:34:55;;;;;;;0.40;0.40;;;15.30;52.30;;;;;;4900120;28;45592;-60
2023/01/15 14:37:28;;;;;;;0.43;0.30;;;15.30;52.30;;;;;;4902555;28;44724;-60
2023/01/15 14:39:57;;;;;;;;;;;15.30;52.20;;;;;;4871932;28;45146;-60
2023/01/15 14:45:09;;;;;;;0.20;0.20;;;15.30;52.30;;;;;;4915946;28;46883;-60
2023/01/15 14:47:46;;;;;;;0.50;0.30;;;15.30;52.30;;;;;;4917303;28;45194;-61
2023/01/15 14:50:37;;;;;;;0.22;0.22;;;15.30;52.30;;;;;;4898486;28;44951;-61
2023/01/15 14:53:24;;;;;;;0.30;0.30;;;15.30;52.30;;;;;;4892541;28;45465;-61
2023/01/15 14:56:27;;;;;;;0.30;0.30;;;15.30;52.30;;;;;;4913494;28;45413;-61
2023/01/15 14:59:24;;;;;;;0.22;0.15;;;15.30;52.30;;;;;;4911599;28;45022;-61
2023/01/15 15:01:53;;;;;;;0.52;0.30;;;15.30;52.30;;;;;;4918316;28;45348;-61
2023/01/15 15:04:37;;;;;;;0.32;0.32;;;15.20;52.30;;;;;;4891989;28;45835;-61
2023/01/15 15:07:06;;;;;;;0.40;0.40;;;15.30;52.40;;;;;;4890658;28;45831;-61
2023/01/15 15:09:40;;;;;;;0.30;0.30;;;15.20;52.40;;;;;;4904814;28;45653;-61
2023/01/15 15:12:17;;;;;;;0.20;0.20;;;15.20;52.30;;;;;;4902373;28;45553;-61
2023/01/15 15:14:44;;;;;;;0.77;0.45;;;15.30;52.40;;;;;;4920322;28;45276;-60
2023/01/15 15:17:17;;;;;;;0.32;0.20;;;15.20;52.30;;;;;;4899610;28;45497;-60
2023/01/15 15:19:44;;;;;;;0.30;0.30;;;15.20;52.30;;;;;;4919498;28;45662;-61
2023/01/15 15:22:12;;;;;;;0.22;0.20;;;15.20;52.30;;;;;;4902101;28;46077;-61
2023/01/15 15:24:48;;;;;;;0.60;0.40;;;15.20;52.30;;;;;;4921209;28;45205;-60
2023/01/15 15:27:15;;;;;;;0.55;0.40;;;15.20;52.30;;;;;;4919206;28;47182;-61
2023/01/15 15:29:41;;;;;;;0.60;0.40;;;15.20;52.30;;;;;;4911146;28;45578;-61
2023/01/15 15:32:10;;;;;;;0.43;0.30;;;15.20;52.30;;;;;;4904711;28;45320;-60
2023/01/15 15:34:39;;;;;;;0.32;0.30;;;15.20;52.20;;;;;;4916825;28;45413;-59
2023/01/15 15:37:11;;;;;;;0.52;0.32;;;15.20;52.30;;;;;;4919640;28;47296;-59
2023/01/15 15:39:57;;;;;;;0.30;0.20;;;15.20;52.30;;;;;;4921751;28;44742;-60
2023/01/15 15:48:52;;;;;;;0.40;0.30;;;15.20;52.20;;;;;;4919044;28;45562;-60
2023/01/15 15:51:24;;;;;;;0.35;0.30;;;15.20;52.30;;;;;;4921700;28;45516;-59
2023/01/15 15:53:49;;;;;;;0.50;0.45;;;15.20;52.30;;;;;;4917917;28;44992;-60
2023/01/15 15:56:15;;;;;;;0.30;0.28;;;15.20;52.30;;;;;;4933663;28;45314;-60
2023/01/15 15:58:40;;;;;;;0.60;0.40;;;15.20;52.30;;;;;;4922333;28;45374;-60
2023/01/15 16:01:09;;;;;;;0.38;0.32;;;15.20;52.30;;;;;;4917181;28;45734;-60
2023/01/15 16:03:35;;;;;;;0.60;0.40;;;15.20;52.30;;;;;;4919608;28;46069;-60
2023/01/15 16:06:05;;;;;;;0.28;0.28;;;15.20;52.20;;;;;;4933309;28;45248;-59
2023/01/15 16:08:34;;;;;;;0.30;0.30;;;15.20;52.20;;;;;;4909025;28;45445;-60
2023/01/15 16:11:05;;;;;;;0.30;0.30;;;15.20;52.30;;;;;;4925145;28;45757;-60
2023/01/15 16:13:44;;;;;;;0.52;0.32;;;15.20;52.30;;;;;;4909728;28;45209;-60
2023/01/15 16:16:10;;;;;;;0.30;0.30;;;15.20;52.20;;;;;;4907365;28;45311;-60
2023/01/15 16:18:43;;;;;;;0.10;0.10;;;15.20;52.30;;;;;;4906846;28;45755;-61
2023/01/15 16:21:16;;;;;;;0.63;0.30;;;15.20;52.20;;;;;;4908773;28;45331;-59
2023/01/15 16:23:44;;;;;;;0.57;0.20;;;15.20;52.20;;;;;;4919548;28;45483;-60
2023/01/15 16:26:10;;;;;;;0.20;0.20;;;15.20;52.30;;;;;;4932723;28;45233;-60
2023/01/15 16:28:40;;;;;;;0.57;0.25;;;15.20;52.30;;;;;;4923400;28;46914;-61
2023/01/15 16:31:06;;;;;;;0.20;0.20;;;15.10;52.20;;;;;;4923531;28;45237;-60
2023/01/15 16:33:32;;;;;;;0.35;0.20;;;15.20;52.30;;;;;;4915126;28;45347;-60
2023/01/15 16:35:58;;;;;;;0.50;0.30;;;15.10;52.20;;;;;;4920301;28;45556;-60
2023/01/15 16:38:23;;;;;;;0.20;0.20;;;15.10;52.30;;;;;;4892476;28;47551;-60
2023/01/15 16:40:49;;;;;;;0.30;0.25;;;15.10;52.20;;;;;;4891923;28;45278;-60
2023/01/15 16:43:16;;;;;;;0.77;0.40;;;15.20;52.20;;;;;;4906925;28;46250;-60
2023/01/15 16:45:54;;;;;;;0.20;0.20;;;15.10;52.20;;;;;;4923622;28;44966;-59
2023/01/15 16:48:21;;;;;;;0.60;0.30;;;15.20;52.20;;;;;;4918195;28;45356;-60
2023/01/15 16:50:47;;;;;;;0.32;0.20;;;15.10;52.20;;;;;;4918741;28;45558;-59
2023/01/15 16:53:35;;;;;;;0.60;0.30;;;15.10;52.20;;;;;;4924655;28;46481;-60
2023/01/15 16:56:01;;;;;;;0.55;0.40;;;15.10;52.30;;;;;;4919840;28;45275;-60
2023/01/15 16:58:37;;;;;;;0.30;0.20;;;15.10;52.30;;;;;;4923909;28;46064;-60
2023/01/15 17:01:30;;;;;;;0.38;0.30;;;15.10;52.30;;;;;;4923922;28;45619;-59
2023/01/15 17:03:57;;;;;;;0.50;0.38;;;15.10;52.30;;;;;;4916585;28;45872;-60
2023/01/15 17:06:24;;;;;;;0.38;0.30;;;15.10;52.30;;;;;;4926779;28;45443;-60
2023/01/15 17:08:50;;;;;;;0.93;0.40;;;15.10;52.30;;;;;;4909806;28;47180;-60
2023/01/15 17:11:20;;;;;;;0.60;0.47;;;15.10;52.30;;;;;;4923477;28;45264;-60
2023/01/15 17:13:46;;;;;;;0.55;0.30;;;15.10;52.30;;;;;;4911930;28;45462;-61
2023/01/15 17:16:11;;;;;;;0.40;0.30;;;15.10;52.20;;;;;;4922281;28;45478;-60
2023/01/15 17:18:37;;;;;;;0.43;0.38;;;15.10;52.30;;;;;;4918558;28;45433;-61
2023/01/15 17:21:02;;;;;;;0.20;0.20;;;15.10;52.30;;;;;;4919843;28;45185;-60
2023/01/15 17:23:30;;;;;;;0.45;0.30;;;15.10;52.30;;;;;;4922053;28;45400;-61
2023/01/15 17:25:55;;;;;;;0.35;0.30;;;15.10;52.30;;;;;;4934934;28;45452;-61
2023/01/15 17:28:24;;;;;;;0.47;0.40;;;15.10;52.30;;;;;;4924468;28;46613;-61
2023/01/15 17:30:56;;;;;;;0.30;0.28;;;15.10;52.30;;;;;;4921997;28;45316;-61
2023/01/15 17:33:22;;;;;;;0.35;0.25;;;15.00;52.90;;;;;;4934111;28;45534;-61
2023/01/15 17:35:47;;;;;;;0.68;0.32;;;15.10;52.30;;;;;;4919977;28;45525;-61
2023/01/15 17:38:14;;;;;;;0.30;0.28;;;15.00;52.30;;;;;;4904675;28;45247;-61
2023/01/15 17:40:39;;;;;;;0.68;0.40;;;15.00;52.30;;;;;;4933593;28;48008;-61
2023/01/15 17:43:05;;;;;;;0.52;0.30;;;15.00;52.30;;;;;;4924145;28;45310;-60
2023/01/15 17:45:31;;;;;;;0.47;0.40;;;15.00;52.30;;;;;;4933155;28;45293;-61
2023/01/15 17:47:57;;;;;;;0.35;0.25;;;15.00;52.30;;;;;;4902733;28;45437;-61
2023/01/15 17:50:23;;;;;;;0.50;0.35;;;15.00;52.30;;;;;;4919909;28;46096;-61
2023/01/15 17:52:48;;;;;;;0.30;0.30;;;15.00;52.30;;;;;;4901635;28;45291;-61
2023/01/15 18:06:13;;;;;;;0.22;0.20;;;14.90;52.30;;;;;;4924242;28;45872;-61
2023/01/15 18:08:39;;;;;;;0.30;0.20;;;15.00;52.30;;;;;;4919341;28;45594;-60
2023/01/15 18:11:05;;;;;;;0.30;0.20;;;15.00;52.30;;;;;;4918500;28;45274;-61
2023/01/15 18:13:30;;;;;;;0.20;0.20;;;15.00;52.30;;;;;;4918059;28;45226;-61